sensor_id;sensor_type;location;lat;lon;timestamp;pressure;altitude;pressure_sealevel;temperature;humidity
59435;BME280;45241;49.768;8.636;2023-02-21T00:00:41;100696.56;;;11.11;74.93
59435;BME280;45241;49.768;8.636;2023-02-21T00:03:25;100697.72;;;11.17;74.76
59435;BME280;45241;49.768;8.636;2023-02-21T00:06:09;100700.38;;;11.02;75.50
59435;BME280;45241;49.768;8.636;2023-02-21T00:08:53;100702.88;;;11.03;74.62
59435;BME280;45241;49.768;8.636;2023-02-21T00:11:41;100698.97;;;10.91;74.38
59435;BME280;45241;49.768;8.636;2023-02-21T00:14:25;100693.22;;;10.94;74.39
59435;BME280;45241;49.768;8.636;2023-02-21T00:17:09;100691.56;;;10.93;75.00
59435;BME280;45241;49.768;8.636;2023-02-21T00:19:53;100693.34;;;11.01;74.53
59435;BME280;45241;49.768;8.636;2023-02-21T00:22:37;100680.84;;;10.93;74.56
59435;BME280;45241;49.768;8.636;2023-02-21T00:25:21;100681.59;;;10.87;74.46
59435;BME280;45241;49.768;8.636;2023-02-21T00:28:05;100683.31;;;10.80;74.71
59435;BME280;45241;49.768;8.636;2023-02-21T00:30:49;100683.88;;;10.75;75.31
59435;BME280;45241;49.768;8.636;2023-02-21T00:33:36;100684.28;;;10.64;75.04
59435;BME280;45241;49.768;8.636;2023-02-21T00:36:20;100684.75;;;10.68;74.91
59435;BME280;45241;49.768;8.636;2023-02-21T00:39:04;100675.06;;;10.67;74.90
59435;BME280;45241;49.768;8.636;2023-02-21T00:41:48;100690.53;;;10.56;75.27
59435;BME280;45241;49.768;8.636;2023-02-21T00:44:32;100688.94;;;10.47;74.93
59435;BME280;45241;49.768;8.636;2023-02-21T00:47:16;100675.19;;;10.50;75.15
59435;BME280;45241;49.768;8.636;2023-02-21T00:49:59;100674.47;;;10.34;76.91
59435;BME280;45241;49.768;8.636;2023-02-21T00:52:43;100677.47;;;10.39;76.08
59435;BME280;45241;49.768;8.636;2023-02-21T00:55:27;100671.50;;;10.29;76.38
59435;BME280;45241;49.768;8.636;2023-02-21T00:58:11;100679.13;;;10.17;77.27
59435;BME280;45241;49.768;8.636;2023-02-21T01:00:56;100674.13;;;10.14;77.67
59435;BME280;45241;49.768;8.636;2023-02-21T01:03:40;100672.00;;;10.09;77.69
59435;BME280;45241;49.768;8.636;2023-02-21T01:06:24;100672.63;;;10.11;76.26
59435;BME280;45241;49.768;8.636;2023-02-21T01:09:08;100668.22;;;9.95;77.15
59435;BME280;45241;49.768;8.636;2023-02-21T01:11:52;100667.53;;;9.93;75.64
59435;BME280;45241;49.768;8.636;2023-02-21T01:14:35;100675.28;;;9.88;75.89
59435;BME280;45241;49.768;8.636;2023-02-21T01:17:19;100673.25;;;9.90;76.47
59435;BME280;45241;49.768;8.636;2023-02-21T01:20:04;100673.50;;;9.33;77.85
59435;BME280;45241;49.768;8.636;2023-02-21T01:22:48;100682.47;;;9.57;77.42
59435;BME280;45241;49.768;8.636;2023-02-21T01:25:32;100682.75;;;9.70;77.30
59435;BME280;45241;49.768;8.636;2023-02-21T01:28:16;100674.16;;;9.35;78.36
59435;BME280;45241;49.768;8.636;2023-02-21T01:31:00;100680.97;;;9.54;78.30
59435;BME280;45241;49.768;8.636;2023-02-21T01:33:44;100678.44;;;9.61;77.38
59435;BME280;45241;49.768;8.636;2023-02-21T01:36:28;100689.25;;;9.67;77.19
59435;BME280;45241;49.768;8.636;2023-02-21T01:39:12;100679.06;;;9.71;76.97
59435;BME280;45241;49.768;8.636;2023-02-21T01:41:55;100671.53;;;9.66;76.84
59435;BME280;45241;49.768;8.636;2023-02-21T01:44:42;100672.81;;;9.48;78.85
59435;BME280;45241;49.768;8.636;2023-02-21T01:47:27;100680.66;;;8.53;81.29
59435;BME280;45241;49.768;8.636;2023-02-21T01:50:29;100666.50;;;9.16;80.63
59435;BME280;45241;49.768;8.636;2023-02-21T01:53:18;100655.31;;;9.21;80.42
59435;BME280;45241;49.768;8.636;2023-02-21T01:56:03;100660.50;;;9.14;80.84
59435;BME280;45241;49.768;8.636;2023-02-21T01:58:50;100651.94;;;9.27;80.17
59435;BME280;45241;49.768;8.636;2023-02-21T02:01:45;100657.47;;;9.25;79.62
59435;BME280;45241;49.768;8.636;2023-02-21T02:04:31;100647.25;;;9.29;78.96
59435;BME280;45241;49.768;8.636;2023-02-21T02:07:16;100655.50;;;9.11;79.95
59435;BME280;45241;49.768;8.636;2023-02-21T02:10:00;100654.19;;;8.91;79.91
59435;BME280;45241;49.768;8.636;2023-02-21T02:12:57;100655.03;;;8.99;80.70
59435;BME280;45241;49.768;8.636;2023-02-21T02:15:32;100652.69;;;9.04;79.74
59435;BME280;45241;49.768;8.636;2023-02-21T02:18:28;100651.16;;;9.18;79.54
59435;BME280;45241;49.768;8.636;2023-02-21T02:35:24;100647.00;;;8.99;79.68
59435;BME280;45241;49.768;8.636;2023-02-21T02:38:11;100637.13;;;9.00;79.45
59435;BME280;45241;49.768;8.636;2023-02-21T02:40:51;100642.50;;;9.00;79.18
59435;BME280;45241;49.768;8.636;2023-02-21T02:43:29;100637.63;;;9.03;79.37
59435;BME280;45241;49.768;8.636;2023-02-21T02:46:01;100639.16;;;9.06;78.91
59435;BME280;45241;49.768;8.636;2023-02-21T02:48:45;100631.44;;;9.03;78.46
59435;BME280;45241;49.768;8.636;2023-02-21T02:51:12;100640.00;;;8.98;79.61
59435;BME280;45241;49.768;8.636;2023-02-21T02:53:39;100633.50;;;8.93;79.70
59435;BME280;45241;49.768;8.636;2023-02-21T02:56:07;100634.81;;;8.89;80.52
59435;BME280;45241;49.768;8.636;2023-02-21T02:58:46;100629.00;;;8.77;80.95
59435;BME280;45241;49.768;8.636;2023-02-21T03:01:30;100634.03;;;8.80;80.14
59435;BME280;45241;49.768;8.636;2023-02-21T03:07:14;100639.22;;;8.57;82.72
59435;BME280;45241;49.768;8.636;2023-02-21T03:12:34;100631.88;;;8.59;82.68
59435;BME280;45241;49.768;8.636;2023-02-21T03:15:11;100639.88;;;8.75;81.61
59435;BME280;45241;49.768;8.636;2023-02-21T03:17:42;100635.56;;;8.66;82.92
59435;BME280;45241;49.768;8.636;2023-02-21T03:20:12;100635.56;;;8.66;82.46
59435;BME280;45241;49.768;8.636;2023-02-21T03:22:39;100635.38;;;8.60;81.57
59435;BME280;45241;49.768;8.636;2023-02-21T03:25:07;100631.34;;;8.64;81.18
59435;BME280;45241;49.768;8.636;2023-02-21T03:27:34;100632.03;;;8.66;79.33
59435;BME280;45241;49.768;8.636;2023-02-21T03:30:03;100636.53;;;8.73;78.85
59435;BME280;45241;49.768;8.636;2023-02-21T03:32:34;100636.91;;;8.54;79.20
59435;BME280;45241;49.768;8.636;2023-02-21T03:35:02;100643.56;;;8.58;79.60
59435;BME280;45241;49.768;8.636;2023-02-21T03:40:04;100639.91;;;8.43;80.04
59435;BME280;45241;49.768;8.636;2023-02-21T03:42:30;100637.22;;;8.51;81.04
59435;BME280;45241;49.768;8.636;2023-02-21T03:44:56;100649.09;;;8.57;80.62
59435;BME280;45241;49.768;8.636;2023-02-21T03:47:21;100656.28;;;8.56;80.17
59435;BME280;45241;49.768;8.636;2023-02-21T03:49:46;100646.75;;;8.21;81.37
59435;BME280;45241;49.768;8.636;2023-02-21T03:52:12;100643.91;;;8.31;80.71
59435;BME280;45241;49.768;8.636;2023-02-21T03:54:41;100646.41;;;8.32;81.79
59435;BME280;45241;49.768;8.636;2023-02-21T03:57:07;100642.22;;;8.38;80.75
59435;BME280;45241;49.768;8.636;2023-02-21T03:59:32;100639.41;;;8.23;81.85
59435;BME280;45241;49.768;8.636;2023-02-21T04:01:57;100645.56;;;8.24;82.58
59435;BME280;45241;49.768;8.636;2023-02-21T04:04:23;100644.25;;;8.36;81.29
59435;BME280;45241;49.768;8.636;2023-02-21T04:06:48;100638.22;;;8.26;81.12
59435;BME280;45241;49.768;8.636;2023-02-21T04:09:13;100643.91;;;8.31;82.29
59435;BME280;45241;49.768;8.636;2023-02-21T04:11:45;100640.88;;;8.26;82.15
59435;BME280;45241;49.768;8.636;2023-02-21T04:14:11;100642.06;;;8.23;81.83
59435;BME280;45241;49.768;8.636;2023-02-21T04:16:37;100643.41;;;8.19;81.27
59435;BME280;45241;49.768;8.636;2023-02-21T04:19:03;100643.41;;;8.03;83.24
59435;BME280;45241;49.768;8.636;2023-02-21T04:21:28;100641.41;;;8.21;81.91
59435;BME280;45241;49.768;8.636;2023-02-21T04:23:53;100653.84;;;7.80;82.25
59435;BME280;45241;49.768;8.636;2023-02-21T04:26:19;100648.91;;;8.17;82.09
59435;BME280;45241;49.768;8.636;2023-02-21T04:28:44;100641.06;;;8.32;81.66
59435;BME280;45241;49.768;8.636;2023-02-21T04:31:10;100650.25;;;8.22;82.28
59435;BME280;45241;49.768;8.636;2023-02-21T04:33:35;100639.06;;;8.34;81.22
59435;BME280;45241;49.768;8.636;2023-02-21T04:36:00;100642.25;;;8.30;82.11
59435;BME280;45241;49.768;8.636;2023-02-21T04:38:26;100635.38;;;8.35;80.93
59435;BME280;45241;49.768;8.636;2023-02-21T04:40:51;100635.25;;;8.29;80.56
59435;BME280;45241;49.768;8.636;2023-02-21T04:43:16;100635.56;;;8.34;80.65
59435;BME280;45241;49.768;8.636;2023-02-21T04:45:42;100641.06;;;8.32;79.95
59435;BME280;45241;49.768;8.636;2023-02-21T04:48:07;100639.22;;;8.25;81.08
59435;BME280;45241;49.768;8.636;2023-02-21T04:50:32;100630.06;;;8.27;81.30
59435;BME280;45241;49.768;8.636;2023-02-21T04:52:57;100638.22;;;8.34;80.50
59435;BME280;45241;49.768;8.636;2023-02-21T04:55:23;100641.25;;;8.31;81.46
59435;BME280;45241;49.768;8.636;2023-02-21T04:57:48;100640.41;;;8.14;83.24
59435;BME280;45241;49.768;8.636;2023-02-21T05:00:14;100634.06;;;8.15;82.78
59435;BME280;45241;49.768;8.636;2023-02-21T05:02:43;100636.56;;;8.16;82.56
59435;BME280;45241;49.768;8.636;2023-02-21T05:05:09;100635.41;;;8.19;82.47
59435;BME280;45241;49.768;8.636;2023-02-21T05:07:35;100636.88;;;8.22;80.80
59435;BME280;45241;49.768;8.636;2023-02-21T05:10:00;100638.91;;;8.28;80.37
59435;BME280;45241;49.768;8.636;2023-02-21T05:12:25;100635.06;;;8.14;80.95
59435;BME280;45241;49.768;8.636;2023-02-21T05:14:51;100629.69;;;7.98;81.73
59435;BME280;45241;49.768;8.636;2023-02-21T05:17:16;100628.22;;;8.03;85.41
59435;BME280;45241;49.768;8.636;2023-02-21T05:19:42;100624.03;;;7.93;86.22
59435;BME280;45241;49.768;8.636;2023-02-21T05:22:07;100618.38;;;8.04;85.52
59435;BME280;45241;49.768;8.636;2023-02-21T05:24:33;100621.69;;;8.06;86.15
59435;BME280;45241;49.768;8.636;2023-02-21T05:26:59;100621.53;;;8.15;83.99
59435;BME280;45241;49.768;8.636;2023-02-21T05:29:25;100620.53;;;8.16;82.86
59435;BME280;45241;49.768;8.636;2023-02-21T05:31:50;100622.19;;;8.09;82.44
59435;BME280;45241;49.768;8.636;2023-02-21T05:34:16;100616.19;;;8.07;83.70
59435;BME280;45241;49.768;8.636;2023-02-21T05:36:43;100615.19;;;8.16;84.39
59435;BME280;45241;49.768;8.636;2023-02-21T05:39:09;100614.00;;;8.11;85.70
59435;BME280;45241;49.768;8.636;2023-02-21T05:41:34;100610.84;;;7.99;84.51
59435;BME280;45241;49.768;8.636;2023-02-21T05:44:00;100613.19;;;8.10;84.18
59435;BME280;45241;49.768;8.636;2023-02-21T05:46:29;100614.34;;;7.33;85.29
59435;BME280;45241;49.768;8.636;2023-02-21T05:48:57;100613.97;;;7.62;85.74
59435;BME280;45241;49.768;8.636;2023-02-21T05:51:23;100612.19;;;8.03;83.76
59435;BME280;45241;49.768;8.636;2023-02-21T05:53:49;100617.53;;;8.11;83.34
59435;BME280;45241;49.768;8.636;2023-02-21T05:56:14;100613.19;;;8.18;85.39
59435;BME280;45241;49.768;8.636;2023-02-21T05:58:40;100618.53;;;8.10;83.21
59435;BME280;45241;49.768;8.636;2023-02-21T06:01:06;100628.84;;;7.97;84.30
59435;BME280;45241;49.768;8.636;2023-02-21T06:03:31;100615.34;;;7.99;83.88
59435;BME280;45241;49.768;8.636;2023-02-21T06:05:57;100621.38;;;8.01;83.75
59435;BME280;45241;49.768;8.636;2023-02-21T06:08:22;100620.53;;;8.08;85.24
59435;BME280;45241;49.768;8.636;2023-02-21T06:10:48;100619.34;;;8.11;83.83
59435;BME280;45241;49.768;8.636;2023-02-21T06:13:13;100611.69;;;8.16;85.83
59435;BME280;45241;49.768;8.636;2023-02-21T06:15:38;100620.03;;;8.05;85.76
59435;BME280;45241;49.768;8.636;2023-02-21T06:18:03;100617.84;;;8.08;84.38
59435;BME280;45241;49.768;8.636;2023-02-21T06:20:29;100619.53;;;8.09;84.56
59435;BME280;45241;49.768;8.636;2023-02-21T06:22:54;100620.53;;;8.08;83.69
59435;BME280;45241;49.768;8.636;2023-02-21T06:25:19;100621.34;;;8.09;84.35
59435;BME280;45241;49.768;8.636;2023-02-21T06:27:45;100625.22;;;8.14;84.61
59435;BME280;45241;49.768;8.636;2023-02-21T06:30:11;100625.88;;;8.00;86.01
59435;BME280;45241;49.768;8.636;2023-02-21T06:32:36;100629.88;;;8.04;85.69
59435;BME280;45241;49.768;8.636;2023-02-21T06:35:02;100630.53;;;8.06;84.43
59435;BME280;45241;49.768;8.636;2023-02-21T06:37:27;100637.88;;;8.12;84.10
59435;BME280;45241;49.768;8.636;2023-02-21T06:39:53;100634.38;;;8.12;83.83
59435;BME280;45241;49.768;8.636;2023-02-21T06:42:19;100640.38;;;7.89;86.66
59435;BME280;45241;49.768;8.636;2023-02-21T06:44:46;100640.53;;;7.88;85.37
59435;BME280;45241;49.768;8.636;2023-02-21T06:47:13;100632.88;;;7.93;84.78
59435;BME280;45241;49.768;8.636;2023-02-21T06:49:38;100634.19;;;7.89;83.59
59435;BME280;45241;49.768;8.636;2023-02-21T06:52:04;100631.34;;;7.99;83.69
59435;BME280;45241;49.768;8.636;2023-02-21T06:54:29;100640.22;;;8.07;84.13
59435;BME280;45241;49.768;8.636;2023-02-21T06:56:55;100646.00;;;7.86;82.38
59435;BME280;45241;49.768;8.636;2023-02-21T06:59:21;100633.34;;;7.80;83.18
59435;BME280;45241;49.768;8.636;2023-02-21T07:01:46;100631.53;;;7.97;82.88
59435;BME280;45241;49.768;8.636;2023-02-21T07:04:11;100644.06;;;8.05;83.38
59435;BME280;45241;49.768;8.636;2023-02-21T07:06:37;100642.56;;;8.10;83.42
59435;BME280;45241;49.768;8.636;2023-02-21T07:09:03;100648.72;;;8.03;84.43
59435;BME280;45241;49.768;8.636;2023-02-21T07:11:30;100640.72;;;8.11;83.74
59435;BME280;45241;49.768;8.636;2023-02-21T07:13:55;100636.75;;;8.15;83.05
59435;BME280;45241;49.768;8.636;2023-02-21T07:16:23;100654.75;;;7.46;88.05
59435;BME280;45241;49.768;8.636;2023-02-21T07:18:48;100644.19;;;7.79;86.84
59435;BME280;45241;49.768;8.636;2023-02-21T07:21:14;100638.72;;;8.05;84.77
59435;BME280;45241;49.768;8.636;2023-02-21T07:23:42;100645.56;;;8.24;84.02
59435;BME280;45241;49.768;8.636;2023-02-21T07:26:08;100645.91;;;8.20;84.66
59435;BME280;45241;49.768;8.636;2023-02-21T07:28:33;100645.41;;;8.33;83.87
59435;BME280;45241;49.768;8.636;2023-02-21T07:30:58;100634.91;;;8.40;84.31
59435;BME280;45241;49.768;8.636;2023-02-21T07:33:23;100636.41;;;8.34;84.58
59435;BME280;45241;49.768;8.636;2023-02-21T07:35:49;100641.22;;;8.39;86.84
59435;BME280;45241;49.768;8.636;2023-02-21T07:38:25;100630.41;;;8.40;86.02
59435;BME280;45241;49.768;8.636;2023-02-21T07:40:53;100631.56;;;8.54;87.21
59435;BME280;45241;49.768;8.636;2023-02-21T07:43:19;100629.69;;;8.79;86.32
59435;BME280;45241;49.768;8.636;2023-02-21T07:45:44;100631.66;;;8.85;86.26
59435;BME280;45241;49.768;8.636;2023-02-21T07:48:09;100629.13;;;9.00;85.58
59435;BME280;45241;49.768;8.636;2023-02-21T07:50:39;100627.25;;;9.08;85.12
59435;BME280;45241;49.768;8.636;2023-02-21T07:53:04;100631.41;;;9.19;84.77
59435;BME280;45241;49.768;8.636;2023-02-21T07:55:29;100630.66;;;8.78;89.36
59435;BME280;45241;49.768;8.636;2023-02-21T07:57:54;100643.63;;;9.14;85.98
59435;BME280;45241;49.768;8.636;2023-02-21T08:00:20;100633.91;;;9.21;86.61
59435;BME280;45241;49.768;8.636;2023-02-21T08:02:49;100642.16;;;9.42;86.63
59435;BME280;45241;49.768;8.636;2023-02-21T08:05:16;100643.66;;;9.53;86.33
59435;BME280;45241;49.768;8.636;2023-02-21T08:07:41;100640.88;;;9.46;86.06
59435;BME280;45241;49.768;8.636;2023-02-21T08:10:07;100643.44;;;9.71;86.06
59435;BME280;45241;49.768;8.636;2023-02-21T08:12:33;100649.50;;;9.87;85.56
59435;BME280;45241;49.768;8.636;2023-02-21T08:14:58;100649.28;;;9.66;85.99
59435;BME280;45241;49.768;8.636;2023-02-21T08:17:24;100648.78;;;9.93;85.93
59435;BME280;45241;49.768;8.636;2023-02-21T08:19:49;100652.16;;;9.95;84.81
59435;BME280;45241;49.768;8.636;2023-02-21T08:22:14;100652.25;;;10.02;85.70
59435;BME280;45241;49.768;8.636;2023-02-21T08:24:40;100647.09;;;10.01;85.37
59435;BME280;45241;49.768;8.636;2023-02-21T08:27:05;100638.91;;;9.94;85.81
59435;BME280;45241;49.768;8.636;2023-02-21T08:29:30;100637.22;;;10.24;84.79
59435;BME280;45241;49.768;8.636;2023-02-21T08:31:56;100642.19;;;10.04;85.30
59435;BME280;45241;49.768;8.636;2023-02-21T08:34:21;100641.31;;;9.89;87.04
59435;BME280;45241;49.768;8.636;2023-02-21T08:36:46;100636.34;;;10.09;86.37
59435;BME280;45241;49.768;8.636;2023-02-21T08:39:12;100636.00;;;10.04;85.68
59435;BME280;45241;49.768;8.636;2023-02-21T08:41:44;100631.97;;;10.08;85.53
59435;BME280;45241;49.768;8.636;2023-02-21T08:44:12;100631.34;;;10.20;84.04
59435;BME280;45241;49.768;8.636;2023-02-21T08:46:37;100624.38;;;10.34;84.27
59435;BME280;45241;49.768;8.636;2023-02-21T08:49:04;100624.09;;;10.52;82.70
59435;BME280;45241;49.768;8.636;2023-02-21T08:51:31;100627.97;;;10.26;84.30
59435;BME280;45241;49.768;8.636;2023-02-21T08:53:57;100625.63;;;10.46;84.02
59435;BME280;45241;49.768;8.636;2023-02-21T08:56:23;100625.78;;;10.68;82.95
59435;BME280;45241;49.768;8.636;2023-02-21T08:58:51;100619.75;;;10.66;82.32
59435;BME280;45241;49.768;8.636;2023-02-21T09:01:18;100619.50;;;10.75;82.59
59435;BME280;45241;49.768;8.636;2023-02-21T09:03:44;100622.09;;;10.83;81.14
59435;BME280;45241;49.768;8.636;2023-02-21T09:06:09;100616.19;;;11.03;79.80
59435;BME280;45241;49.768;8.636;2023-02-21T09:08:35;100619.78;;;11.10;80.23
59435;BME280;45241;49.768;8.636;2023-02-21T09:11:02;100613.78;;;11.08;79.51
59435;BME280;45241;49.768;8.636;2023-02-21T09:13:28;100608.69;;;11.28;79.90
59435;BME280;45241;49.768;8.636;2023-02-21T09:15:54;100619.63;;;11.41;79.07
59435;BME280;45241;49.768;8.636;2023-02-21T09:18:20;100615.69;;;11.58;76.69
59435;BME280;45241;49.768;8.636;2023-02-21T09:20:46;100615.81;;;11.06;78.92
59435;BME280;45241;49.768;8.636;2023-02-21T09:23:17;100610.63;;;11.04;78.36
59435;BME280;45241;49.768;8.636;2023-02-21T09:25:44;100613.31;;;11.04;79.09
59435;BME280;45241;49.768;8.636;2023-02-21T09:28:10;100622.03;;;11.36;78.79
59435;BME280;45241;49.768;8.636;2023-02-21T09:30:35;100614.63;;;11.38;77.76
59435;BME280;45241;49.768;8.636;2023-02-21T09:33:00;100611.75;;;11.76;76.93
59435;BME280;45241;49.768;8.636;2023-02-21T09:35:25;100616.38;;;11.46;76.87
59435;BME280;45241;49.768;8.636;2023-02-21T09:37:54;100611.97;;;11.95;74.48
59435;BME280;45241;49.768;8.636;2023-02-21T09:43:33;100607.84;;;11.93;76.01
59435;BME280;45241;49.768;8.636;2023-02-21T09:46:03;100603.16;;;12.23;74.92
59435;BME280;45241;49.768;8.636;2023-02-21T09:48:30;100597.53;;;12.18;73.56
59435;BME280;45241;49.768;8.636;2023-02-21T09:50:58;100597.81;;;12.29;73.17
59435;BME280;45241;49.768;8.636;2023-02-21T09:53:30;100599.88;;;12.27;73.46
59435;BME280;45241;49.768;8.636;2023-02-21T09:55:59;100586.16;;;12.72;71.63
59435;BME280;45241;49.768;8.636;2023-02-21T09:58:28;100587.44;;;12.76;70.40
59435;BME280;45241;49.768;8.636;2023-02-21T10:00:57;100586.41;;;12.77;70.64
59435;BME280;45241;49.768;8.636;2023-02-21T10:03:41;100585.16;;;12.79;70.82
59435;BME280;45241;49.768;8.636;2023-02-21T10:12:01;100588.66;;;12.73;71.32
59435;BME280;45241;49.768;8.636;2023-02-21T10:17:53;100586.84;;;12.80;71.07
59435;BME280;45241;49.768;8.636;2023-02-21T10:20:04;100585.69;;;13.24;70.41
59435;BME280;45241;49.768;8.636;2023-02-21T10:22:37;100583.75;;;13.66;69.16
59435;BME280;45241;49.768;8.636;2023-02-21T10:27:46;100574.91;;;13.24;69.04
59435;BME280;45241;49.768;8.636;2023-02-21T10:30:23;100589.56;;;13.63;68.39
59435;BME280;45241;49.768;8.636;2023-02-21T10:32:49;100579.69;;;14.23;67.26
59435;BME280;45241;49.768;8.636;2023-02-21T10:35:15;100581.78;;;14.01;67.53
59435;BME280;45241;49.768;8.636;2023-02-21T10:37:48;100582.75;;;13.73;67.14
59435;BME280;45241;49.768;8.636;2023-02-21T10:40:26;100574.34;;;14.29;65.72
59435;BME280;45241;49.768;8.636;2023-02-21T10:42:56;100580.31;;;14.25;65.13
59435;BME280;45241;49.768;8.636;2023-02-21T10:45:31;100573.25;;;14.24;65.82
59435;BME280;45241;49.768;8.636;2023-02-21T10:48:06;100582.22;;;14.31;66.14
59435;BME280;45241;49.768;8.636;2023-02-21T10:50:42;100573.41;;;15.08;64.85
59435;BME280;45241;49.768;8.636;2023-02-21T10:53:09;100576.41;;;14.47;65.58
59435;BME280;45241;49.768;8.636;2023-02-21T10:56:04;100564.22;;;15.22;63.52
59435;BME280;45241;49.768;8.636;2023-02-21T10:58:30;100568.72;;;14.04;66.20
59435;BME280;45241;49.768;8.636;2023-02-21T11:00:56;100569.13;;;14.28;66.82
59435;BME280;45241;49.768;8.636;2023-02-21T11:03:23;100567.88;;;14.70;66.21
59435;BME280;45241;49.768;8.636;2023-02-21T11:05:53;100562.00;;;15.06;64.79
59435;BME280;45241;49.768;8.636;2023-02-21T11:08:38;100563.84;;;15.12;64.39
59435;BME280;45241;49.768;8.636;2023-02-21T11:11:04;100560.19;;;14.74;64.26
59435;BME280;45241;49.768;8.636;2023-02-21T11:13:29;100559.38;;;14.80;63.62
59435;BME280;45241;49.768;8.636;2023-02-21T11:16:11;100558.09;;;14.76;64.64
59435;BME280;45241;49.768;8.636;2023-02-21T11:18:39;100558.63;;;15.17;64.25
59435;BME280;45241;49.768;8.636;2023-02-21T11:21:23;100550.06;;;15.27;63.99
59435;BME280;45241;49.768;8.636;2023-02-21T11:23:56;100543.13;;;14.93;63.50
59435;BME280;45241;49.768;8.636;2023-02-21T11:26:27;100544.41;;;14.90;63.25
59435;BME280;45241;49.768;8.636;2023-02-21T11:28:54;100535.31;;;14.65;63.35
59435;BME280;45241;49.768;8.636;2023-02-21T11:31:32;100539.09;;;15.15;62.38
59435;BME280;45241;49.768;8.636;2023-02-21T11:33:59;100534.13;;;15.19;62.61
59435;BME280;45241;49.768;8.636;2023-02-21T11:36:34;100530.25;;;15.46;62.65
59435;BME280;45241;49.768;8.636;2023-02-21T11:39:15;100528.06;;;15.23;62.70
59435;BME280;45241;49.768;8.636;2023-02-21T11:41:56;100527.28;;;15.61;61.60
59435;BME280;45241;49.768;8.636;2023-02-21T11:44:32;100519.94;;;15.30;61.86
59435;BME280;45241;49.768;8.636;2023-02-21T11:52:15;100500.06;;;15.88;60.48
59435;BME280;45241;49.768;8.636;2023-02-21T11:54:43;100503.72;;;15.68;60.02
59435;BME280;45241;49.768;8.636;2023-02-21T11:57:24;100491.25;;;15.67;60.22
59435;BME280;45241;49.768;8.636;2023-02-21T12:03:05;100482.66;;;15.83;59.80
59435;BME280;45241;49.768;8.636;2023-02-21T12:05:46;100472.50;;;16.65;59.44
59435;BME280;45241;49.768;8.636;2023-02-21T12:08:22;100465.38;;;16.71;57.60
59435;BME280;45241;49.768;8.636;2023-02-21T12:13:47;100463.75;;;16.27;58.09
59435;BME280;45241;49.768;8.636;2023-02-21T12:16:36;100460.44;;;16.25;58.30
59435;BME280;45241;49.768;8.636;2023-02-21T12:19:30;100450.97;;;17.25;58.11
59435;BME280;45241;49.768;8.636;2023-02-21T12:31:04;100437.09;;;16.67;56.89
59435;BME280;45241;49.768;8.636;2023-02-21T12:33:41;100422.81;;;16.41;57.83
59435;BME280;45241;49.768;8.636;2023-02-21T12:39:02;100423.34;;;16.50;57.63
59435;BME280;45241;49.768;8.636;2023-02-21T12:41:36;100408.44;;;17.68;55.70
59435;BME280;45241;49.768;8.636;2023-02-21T12:44:18;100415.59;;;16.54;57.97
59435;BME280;45241;49.768;8.636;2023-02-21T12:47:03;100405.22;;;17.17;56.43
59435;BME280;45241;49.768;8.636;2023-02-21T12:52:26;100412.72;;;17.03;57.26
59435;BME280;45241;49.768;8.636;2023-02-21T12:55:19;100398.34;;;16.73;57.14
59435;BME280;45241;49.768;8.636;2023-02-21T12:58:13;100395.44;;;17.58;54.30
59435;BME280;45241;49.768;8.636;2023-02-21T13:00:58;100394.25;;;16.64;56.28
59435;BME280;45241;49.768;8.636;2023-02-21T13:03:35;100390.72;;;16.82;57.00
59435;BME280;45241;49.768;8.636;2023-02-21T13:09:21;100381.31;;;17.68;54.85
59435;BME280;45241;49.768;8.636;2023-02-21T13:12:06;100383.25;;;17.37;56.11
59435;BME280;45241;49.768;8.636;2023-02-21T13:14:40;100380.44;;;17.44;55.65
59435;BME280;45241;49.768;8.636;2023-02-21T13:17:14;100384.19;;;16.71;56.35
59435;BME280;45241;49.768;8.636;2023-02-21T13:19:47;100377.41;;;17.10;56.49
59435;BME280;45241;49.768;8.636;2023-02-21T13:28:29;100358.91;;;17.60;55.52
59435;BME280;45241;49.768;8.636;2023-02-21T13:30:59;100364.09;;;17.62;55.74
59435;BME280;45241;49.768;8.636;2023-02-21T13:33:35;100360.84;;;17.83;54.64
59435;BME280;45241;49.768;8.636;2023-02-21T13:38:44;100349.16;;;18.98;53.11
59435;BME280;45241;49.768;8.636;2023-02-21T13:41:12;100355.38;;;18.82;52.62
59435;BME280;45241;49.768;8.636;2023-02-21T13:43:49;100345.50;;;18.01;52.90
59435;BME280;45241;49.768;8.636;2023-02-21T13:46:23;100342.78;;;18.12;53.81
59435;BME280;45241;49.768;8.636;2023-02-21T13:51:51;100340.72;;;18.43;53.46
59435;BME280;45241;49.768;8.636;2023-02-21T13:54:22;100327.00;;;18.90;52.29
59435;BME280;45241;49.768;8.636;2023-02-21T13:56:48;100327.13;;;19.28;50.91
59435;BME280;45241;49.768;8.636;2023-02-21T13:59:32;100333.22;;;19.19;51.44
59435;BME280;45241;49.768;8.636;2023-02-21T14:04:59;100318.16;;;19.61;51.54
59435;BME280;45241;49.768;8.636;2023-02-21T14:07:45;100317.06;;;18.95;51.76
59435;BME280;45241;49.768;8.636;2023-02-21T14:10:22;100307.09;;;19.68;50.17
59435;BME280;45241;49.768;8.636;2023-02-21T14:12:57;100307.44;;;19.38;50.55
59435;BME280;45241;49.768;8.636;2023-02-21T14:15:35;100301.75;;;18.77;51.44
59435;BME280;45241;49.768;8.636;2023-02-21T14:18:01;100309.50;;;19.14;50.90
59435;BME280;45241;49.768;8.636;2023-02-21T14:20:27;100299.81;;;19.35;50.98
59435;BME280;45241;49.768;8.636;2023-02-21T14:22:57;100301.66;;;19.18;50.92
59435;BME280;45241;49.768;8.636;2023-02-21T14:25:24;100295.81;;;19.43;50.29
59435;BME280;45241;49.768;8.636;2023-02-21T14:27:50;100307.50;;;20.59;49.06
59435;BME280;45241;49.768;8.636;2023-02-21T14:30:30;100296.88;;;20.58;48.77
59435;BME280;45241;49.768;8.636;2023-02-21T14:33:07;100293.09;;;19.43;49.97
59435;BME280;45241;49.768;8.636;2023-02-21T14:35:37;100291.06;;;20.05;48.67
59435;BME280;45241;49.768;8.636;2023-02-21T14:38:28;100289.78;;;20.35;49.13
59435;BME280;45241;49.768;8.636;2023-02-21T14:49:58;100284.78;;;20.48;47.38